Time;durP1;ratioP1;P1;durP2;ratioP2;P2;SDS_P1;SDS_P2;PMS_P1;PMS_P2;Temp;Humidity;BMP_temperature;BMP_pressure;BME280_temperature;BME280_humidity;BME280_pressure;Samples;Min_cycle;Max_cycle;Signal;HPM_P1;HPM_P2
2022/03/23 00:00:39;;;;;;;;;;;;;;;0.43;46.41;102447.40;1913509;74;20282;-63
2022/03/23 00:03:07;;;;;;;;;;;;;;;0.42;46.60;102440.44;1944082;73;20217;-60
2022/03/23 00:05:36;;;;;;;;;;;;;;;0.41;46.74;102439.97;1965566;73;20139;-62
2022/03/23 00:08:04;;;;;;;;;;;;;;;0.40;46.84;102436.93;1948522;73;21076;-58
2022/03/23 00:10:31;;;;;;;;;;;;;;;0.36;46.77;102428.18;1959232;73;20186;-67
2022/03/23 00:12:59;;;;;;;;;;;;;;;0.32;46.74;102428.92;1967792;73;20127;-65
2022/03/23 00:15:32;;;;;;;;;;;;;;;0.29;46.92;102434.88;1963406;73;20169;-65
2022/03/23 00:17:57;;;;;;;;;;;;;;;0.26;46.81;102423.14;1949963;73;20241;-66
2022/03/23 00:20:25;;;;;;;;;;;;;;;0.22;46.83;102425.16;1953138;73;20142;-65
2022/03/23 00:22:52;;;;;;;;;;;;;;;0.19;46.90;102420.77;1957022;73;20180;-65
2022/03/23 00:25:20;;;;;;;;;;;;;;;0.18;47.21;102429.78;1955687;73;20129;-68
2022/03/23 00:27:48;;;;;;;;;;;;;;;0.16;47.06;102428.86;1960366;73;20255;-66
2022/03/23 00:30:16;;;;;;;;;;;;;;;0.14;47.31;102425.35;1960398;73;20139;-67
2022/03/23 00:32:44;;;;;;;;;;;;;;;0.12;47.34;102427.89;1964285;73;20139;-64
2022/03/23 00:35:12;;;;;;;;;;;;;;;0.09;47.28;102426.91;1953645;73;20187;-63
2022/03/23 00:37:40;;;;;;;;;;;;;;;0.07;47.39;102416.92;1953301;73;20165;-70
2022/03/23 00:40:08;;;;;;;;;;;;;;;0.04;47.31;102419.02;1959801;73;20127;-74
2022/03/23 00:42:36;;;;;;;;;;;;;;;0.00;47.29;102422.34;1965081;73;20236;-63
2022/03/23 00:45:06;;;;;;;;;;;;;;;-0.04;47.48;102421.37;1959652;73;20263;-64
2022/03/23 00:47:35;;;;;;;;;;;;;;;-0.04;47.61;102428.23;1949571;73;20223;-66
2022/03/23 00:50:03;;;;;;;;;;;;;;;-0.05;47.70;102429.95;1949586;73;20475;-64
2022/03/23 00:52:31;;;;;;;;;;;;;;;-0.06;47.60;102424.30;1955985;73;20267;-68
2022/03/23 00:54:58;;;;;;;;;;;;;;;-0.10;47.55;102432.80;1949938;73;20131;-61
2022/03/23 00:57:26;;;;;;;;;;;;;;;-0.13;47.58;102434.02;1955135;73;20138;-66
2022/03/23 00:59:54;;;;;;;;;;;;;;;-0.15;47.63;102424.00;1955220;73;20145;-65
2022/03/23 01:02:21;;;;;;;;;;;;;;;-0.17;47.53;102424.80;1952835;73;20137;-64
2022/03/23 01:04:49;;;;;;;;;;;;;;;-0.22;47.60;102422.08;1957016;73;20143;-63
2022/03/23 01:07:18;;;;;;;;;;;;;;;-0.23;47.81;102421.17;1960598;73;20622;-73
2022/03/23 01:09:46;;;;;;;;;;;;;;;-0.23;47.94;102417.72;1961318;73;20242;-67
2022/03/23 01:12:15;;;;;;;;;;;;;;;-0.25;47.87;102424.13;1954311;73;20269;-66
2022/03/23 01:14:43;;;;;;;;;;;;;;;-0.27;47.85;102419.75;1944355;73;20185;-62
2022/03/23 01:17:12;;;;;;;;;;;;;;;-0.31;47.96;102417.47;1965659;73;20139;-65
2022/03/23 01:19:40;;;;;;;;;;;;;;;-0.35;47.83;102415.62;1975234;73;20409;-64
2022/03/23 01:22:08;;;;;;;;;;;;;;;-0.37;47.81;102418.97;1966258;73;20138;-63
2022/03/23 01:24:36;;;;;;;;;;;;;;;-0.42;47.80;102412.36;1941156;73;20172;-67
2022/03/23 01:27:04;;;;;;;;;;;;;;;-0.44;47.97;102415.31;1944484;73;20255;-62
2022/03/23 01:29:32;;;;;;;;;;;;;;;-0.45;47.92;102417.00;1940925;74;20141;-62
2022/03/23 01:32:00;;;;;;;;;;;;;;;-0.48;47.94;102411.74;1941773;73;20168;-63
2022/03/23 01:34:29;;;;;;;;;;;;;;;-0.50;47.87;102415.09;1975298;73;20139;-63
2022/03/23 01:36:57;;;;;;;;;;;;;;;-0.54;47.84;102410.65;1975397;73;20139;-63
2022/03/23 01:39:25;;;;;;;;;;;;;;;-0.58;47.92;102409.66;1963741;73;20126;-64
2022/03/23 01:41:53;;;;;;;;;;;;;;;-0.59;48.15;102410.48;1956362;73;20194;-72
2022/03/23 01:44:22;;;;;;;;;;;;;;;-0.61;48.13;102409.16;1975368;73;20143;-73
2022/03/23 01:47:00;;;;;;;;;;;;;;;-0.65;48.04;102405.11;1961996;73;20172;-71
2022/03/23 01:49:31;;;;;;;;;;;;;;;-0.67;48.03;102409.35;1966965;73;20420;-73
2022/03/23 01:51:59;;;;;;;;;;;;;;;-0.71;48.07;102410.08;1952587;73;20169;-75
2022/03/23 01:54:27;;;;;;;;;;;;;;;-0.73;48.21;102410.03;1953953;73;20141;-73
2022/03/23 01:56:56;;;;;;;;;;;;;;;-0.75;48.21;102407.80;1958392;73;20133;-73
2022/03/23 01:59:24;;;;;;;;;;;;;;;-0.77;48.25;102410.76;1956979;73;20169;-74
2022/03/23 02:01:52;;;;;;;;;;;;;;;-0.80;48.29;102415.39;1958633;73;20165;-76
2022/03/23 02:04:21;;;;;;;;;;;;;;;-0.82;48.40;102401.53;1922119;73;20134;-79
2022/03/23 02:06:50;;;;;;;;;;;;;;;-0.83;48.42;102397.20;1949469;73;20142;-75
2022/03/23 02:09:19;;;;;;;;;;;;;;;-0.82;48.63;102408.42;1948538;73;20130;-73
2022/03/23 02:11:49;;;;;;;;;;;;;;;-0.86;48.57;102403.55;1965486;73;20136;-71
2022/03/23 02:14:17;;;;;;;;;;;;;;;-0.88;48.67;102400.03;1965739;73;20389;-70
2022/03/23 02:16:46;;;;;;;;;;;;;;;-0.89;48.85;102399.55;1965631;73;20131;-76
2022/03/23 02:19:14;;;;;;;;;;;;;;;-0.90;49.03;102396.52;1965665;73;20183;-78
2022/03/23 02:21:46;;;;;;;;;;;;;;;-0.92;48.96;102394.69;1965792;73;20187;-73
2022/03/23 02:24:15;;;;;;;;;;;;;;;-0.93;49.06;102402.87;1965519;73;20140;-73
2022/03/23 02:26:43;;;;;;;;;;;;;;;-0.95;49.26;102398.06;1965690;73;20169;-73
2022/03/23 02:29:11;;;;;;;;;;;;;;;-0.97;49.27;102398.42;1965655;73;20182;-71
2022/03/23 02:31:39;;;;;;;;;;;;;;;-0.99;49.54;102396.20;1965687;73;20214;-71
2022/03/23 02:34:07;;;;;;;;;;;;;;;-0.99;49.54;102397.49;1957488;73;20142;-71
2022/03/23 02:36:35;;;;;;;;;;;;;;;-1.03;49.61;102391.33;1931847;73;20172;-72
2022/03/23 02:39:03;;;;;;;;;;;;;;;-1.04;49.73;102387.39;1931070;74;20267;-70
2022/03/23 02:41:31;;;;;;;;;;;;;;;-1.05;49.78;102381.74;1931141;74;20146;-70
2022/03/23 02:44:00;;;;;;;;;;;;;;;-1.08;49.93;102387.70;1931142;74;20176;-71
2022/03/23 02:46:35;;;;;;;;;;;;;;;-1.08;50.17;102382.95;1931343;74;20172;-71
2022/03/23 02:48:57;;;;;;;;;;;;;;;-1.11;50.02;102385.41;1929456;74;20138;-66
2022/03/23 02:51:25;;;;;;;;;;;;;;;-1.13;50.01;102382.77;1931032;74;20146;-68
2022/03/23 03:02:19;;;;;;;;;;;;;;;-1.23;50.05;102391.91;1931116;74;20146;-68
2022/03/23 03:04:47;;;;;;;;;;;;;;;-1.26;50.08;102387.05;1935500;74;20266;-70
2022/03/23 03:07:15;;;;;;;;;;;;;;;-1.29;50.13;102385.24;1940805;74;20172;-71
2022/03/23 03:09:43;;;;;;;;;;;;;;;-1.31;50.09;102389.48;1940812;74;20167;-66
2022/03/23 03:12:11;;;;;;;;;;;;;;;-1.35;50.00;102386.29;1940804;74;20168;-68
2022/03/23 03:14:39;;;;;;;;;;;;;;;-1.39;49.99;102387.02;1940867;74;20192;-66
2022/03/23 03:17:07;;;;;;;;;;;;;;;-1.43;50.01;102387.73;1940854;74;20141;-69
2022/03/23 03:19:38;;;;;;;;;;;;;;;-1.46;50.00;102391.06;1940936;74;20175;-67
2022/03/23 03:22:06;;;;;;;;;;;;;;;-1.49;50.03;102390.97;1941009;74;20137;-70
2022/03/23 03:24:34;;;;;;;;;;;;;;;-1.51;49.96;102389.13;1940864;74;20231;-70
2022/03/23 03:27:01;;;;;;;;;;;;;;;-1.53;49.92;102391.69;1940806;74;20266;-66
2022/03/23 03:29:29;;;;;;;;;;;;;;;-1.56;49.99;102389.84;1940844;74;20170;-62
2022/03/23 03:31:57;;;;;;;;;;;;;;;-1.55;50.04;102392.02;1940871;74;20141;-64
2022/03/23 03:34:25;;;;;;;;;;;;;;;-1.55;50.05;102390.72;1940946;74;20145;-64
2022/03/23 03:36:53;;;;;;;;;;;;;;;-1.54;50.09;102383.45;1940902;74;20141;-65
2022/03/23 03:39:20;;;;;;;;;;;;;;;-1.53;50.15;102383.94;1940782;74;20142;-65
2022/03/23 03:41:48;;;;;;;;;;;;;;;-1.49;50.14;102388.80;1940783;74;20167;-64
2022/03/23 03:44:16;;;;;;;;;;;;;;;-1.39;50.19;102389.59;1940772;74;20145;-66
2022/03/23 03:46:45;;;;;;;;;;;;;;;-1.19;50.22;102387.31;1940832;74;20188;-65
2022/03/23 03:49:15;;;;;;;;;;;;;;;-0.91;50.18;102379.23;1940898;74;20212;-70
2022/03/23 03:51:43;;;;;;;;;;;;;;;-0.60;50.07;102378.56;1940800;74;20172;-63
2022/03/23 03:54:11;;;;;;;;;;;;;;;-0.30;50.03;102381.67;1941050;74;20130;-62
2022/03/23 03:56:39;;;;;;;;;;;;;;;-0.01;50.01;102383.89;1940853;74;20142;-70
2022/03/23 03:59:07;;;;;;;;;;;;;;;0.30;49.78;102379.64;1940815;74;20176;-73
2022/03/23 04:01:34;;;;;;;;;;;;;;;0.65;49.67;102375.89;1940773;74;20188;-73
2022/03/23 04:04:02;;;;;;;;;;;;;;;1.00;49.36;102379.88;1940811;74;20126;-76
2022/03/23 04:06:30;;;;;;;;;;;;;;;1.33;49.15;102368.63;1914387;74;20443;-76
2022/03/23 04:08:58;;;;;;;;;;;;;;;1.66;49.04;102373.77;1911602;75;20147;-76
2022/03/23 04:11:26;;;;;;;;;;;;;;;1.90;48.93;102372.16;1911606;75;20134;-75
2022/03/23 04:13:53;;;;;;;;;;;;;;;2.11;48.88;102373.05;1911642;75;20173;-75
2022/03/23 04:16:21;;;;;;;;;;;;;;;2.37;48.84;102369.27;1911637;75;20143;-66
2022/03/23 04:18:49;;;;;;;;;;;;;;;2.68;48.85;102365.56;1911600;75;20175;-67
2022/03/23 04:21:17;;;;;;;;;;;;;;;2.93;48.64;102364.72;1911500;75;20172;-70
2022/03/23 04:23:44;;;;;;;;;;;;;;;3.15;48.57;102356.88;1911597;75;20182;-70
2022/03/23 04:26:12;;;;;;;;;;;;;;;3.36;48.42;102359.00;1911548;75;20139;-69
2022/03/23 04:28:40;;;;;;;;;;;;;;;3.58;48.14;102357.59;1911755;75;20173;-72
2022/03/23 04:31:08;;;;;;;;;;;;;;;3.76;47.80;102360.51;1911614;75;20126;-70
2022/03/23 04:33:36;;;;;;;;;;;;;;;3.99;47.66;102352.14;1912091;74;20139;-79
2022/03/23 04:36:04;;;;;;;;;;;;;;;4.29;47.53;102359.92;1945373;74;20137;-77
2022/03/23 04:38:31;;;;;;;;;;;;;;;4.58;47.21;102354.63;1945403;74;20136;-76
2022/03/23 04:40:59;;;;;;;;;;;;;;;4.83;46.59;102353.59;1945385;74;20140;-76
2022/03/23 04:43:27;;;;;;;;;;;;;;;5.01;46.55;102353.77;1945383;74;20140;-76
2022/03/23 04:45:55;;;;;;;;;;;;;;;5.24;46.01;102351.84;1945321;74;20237;-76
2022/03/23 04:48:22;;;;;;;;;;;;;;;5.41;45.80;102350.23;1945314;74;20140;-75
2022/03/23 04:50:50;;;;;;;;;;;;;;;5.64;45.43;102346.91;1945387;74;20120;-75
2022/03/23 04:53:18;;;;;;;;;;;;;;;5.83;44.96;102340.50;1945359;74;20136;-69
2022/03/23 04:55:46;;;;;;;;;;;;;;;6.01;44.43;102338.02;1945442;74;20144;-75
2022/03/23 04:58:15;;;;;;;;;;;;;;;6.13;43.77;102345.94;1945505;74;20518;-73
2022/03/23 05:00:42;;;;;;;;;;;;;;;6.32;43.67;102347.34;1945425;74;20144;-75
2022/03/23 05:03:13;;;;;;;;;;;;;;;6.56;43.55;102336.95;1945581;74;20125;-69
2022/03/23 05:05:40;;;;;;;;;;;;;;;6.75;42.99;102335.28;1941641;73;20133;-73
2022/03/23 05:08:07;;;;;;;;;;;;;;;6.94;42.44;102330.08;1933129;74;20261;-71
2022/03/23 05:10:35;;;;;;;;;;;;;;;7.10;42.05;102330.95;1933230;74;20391;-68
2022/03/23 05:13:03;;;;;;;;;;;;;;;7.27;41.54;102337.54;1933062;74;20133;-69
2022/03/23 05:15:31;;;;;;;;;;;;;;;7.44;41.35;102329.22;1933139;74;20144;-69
2022/03/23 05:17:58;;;;;;;;;;;;;;;7.62;40.81;102327.03;1933145;74;20145;-70
2022/03/23 05:20:26;;;;;;;;;;;;;;;7.76;40.59;102323.51;1933117;74;20137;-69
2022/03/23 05:22:55;;;;;;;;;;;;;;;7.87;39.33;102317.80;1933244;74;20141;-70
2022/03/23 05:25:23;;;;;;;;;;;;;;;7.95;39.48;102317.77;1933084;74;20145;-67
2022/03/23 05:27:51;;;;;;;;;;;;;;;8.05;39.08;102317.74;1933035;74;20175;-75
2022/03/23 05:30:19;;;;;;;;;;;;;;;8.18;38.63;102313.33;1933362;74;20133;-71
2022/03/23 05:32:48;;;;;;;;;;;;;;;8.33;39.01;102307.58;1933142;74;20171;-66
2022/03/23 05:35:17;;;;;;;;;;;;;;;8.61;38.12;102307.03;1909413;74;20143;-68
2022/03/23 05:37:45;;;;;;;;;;;;;;;8.64;38.34;102307.88;1899711;76;20451;-67
2022/03/23 05:40:13;;;;;;;;;;;;;;;8.89;37.92;102309.92;1899632;76;20163;-63
2022/03/23 05:42:41;;;;;;;;;;;;;;;8.97;37.09;102305.06;1899757;76;20170;-64
2022/03/23 05:45:10;;;;;;;;;;;;;;;8.94;36.95;102305.93;1899672;76;20220;-74
2022/03/23 05:47:38;;;;;;;;;;;;;;;9.04;36.80;102302.37;1899669;76;20408;-72
2022/03/23 05:50:07;;;;;;;;;;;;;;;9.32;36.86;102300.83;1899747;76;20185;-72
2022/03/23 05:52:34;;;;;;;;;;;;;;;9.47;35.94;102301.98;1899669;76;20202;-72
2022/03/23 05:55:02;;;;;;;;;;;;;;;9.51;35.77;102294.95;1899650;76;20539;-79
2022/03/23 05:57:30;;;;;;;;;;;;;;;9.55;35.57;102292.70;1899757;76;20139;-72
2022/03/23 05:59:58;;;;;;;;;;;;;;;9.56;35.69;102287.89;1899752;76;20139;-72
2022/03/23 06:02:26;;;;;;;;;;;;;;;9.75;35.12;102296.45;1899718;76;20143;-72
2022/03/23 06:04:54;;;;;;;;;;;;;;;9.81;35.15;102290.25;1899696;76;20170;-73
2022/03/23 06:07:21;;;;;;;;;;;;;;;10.09;34.67;102285.98;1899661;74;20163;-79
2022/03/23 06:09:49;;;;;;;;;;;;;;;10.07;34.31;102284.70;1899694;76;20174;-71
2022/03/23 06:12:17;;;;;;;;;;;;;;;10.09;34.38;102276.34;1899687;76;20131;-71
2022/03/23 06:14:45;;;;;;;;;;;;;;;10.15;34.36;102276.71;1899708;76;20209;-66
2022/03/23 06:17:13;;;;;;;;;;;;;;;10.52;34.92;102277.56;1899725;76;20143;-69
2022/03/23 06:19:41;;;;;;;;;;;;;;;10.91;34.66;102268.62;1899726;76;20131;-71
2022/03/23 06:22:09;;;;;;;;;;;;;;;11.16;33.82;102277.02;1899629;76;20265;-67
2022/03/23 06:24:36;;;;;;;;;;;;;;;11.17;33.36;102270.37;1899731;76;20135;-66
2022/03/23 06:27:04;;;;;;;;;;;;;;;11.35;33.41;102270.51;1899616;76;20175;-65
2022/03/23 06:29:32;;;;;;;;;;;;;;;11.51;32.83;102257.92;1899741;76;20147;-65
2022/03/23 06:32:00;;;;;;;;;;;;;;;11.74;32.96;102267.16;1899713;76;20173;-67
2022/03/23 06:34:27;;;;;;;;;;;;;;;11.82;32.46;102267.00;1912111;74;20133;-73
2022/03/23 06:36:55;;;;;;;;;;;;;;;11.79;32.42;102269.27;1933042;74;20201;-67
2022/03/23 06:39:23;;;;;;;;;;;;;;;11.86;32.25;102260.33;1932917;74;20171;-67
2022/03/23 06:41:51;;;;;;;;;;;;;;;12.08;32.33;102254.62;1933077;74;20140;-71
2022/03/23 06:44:18;;;;;;;;;;;;;;;12.22;31.53;102256.52;1933117;74;20125;-69
2022/03/23 06:46:46;;;;;;;;;;;;;;;12.38;31.42;102254.88;1933048;74;20175;-71
2022/03/23 06:49:16;;;;;;;;;;;;;;;12.54;31.41;102246.99;1932997;74;20203;-66
2022/03/23 06:51:44;;;;;;;;;;;;;;;12.65;31.20;102254.25;1933008;74;20434;-70
2022/03/23 06:54:11;;;;;;;;;;;;;;;12.76;31.15;102248.68;1933052;74;20552;-66
2022/03/23 06:56:39;;;;;;;;;;;;;;;12.92;30.20;102242.58;1933027;74;20137;-71
2022/03/23 06:59:07;;;;;;;;;;;;;;;12.91;29.75;102241.72;1933028;74;20141;-62
2022/03/23 07:01:35;;;;;;;;;;;;;;;13.00;29.61;102243.23;1932914;74;20168;-69
2022/03/23 07:04:03;;;;;;;;;;;;;;;13.30;29.66;102232.80;1933080;74;20140;-71
2022/03/23 07:06:30;;;;;;;;;;;;;;;13.74;29.17;102236.03;1933009;73;20489;-71
2022/03/23 07:11:44;;;;;;;;;;;;;;;14.10;28.24;102235.39;1933048;74;20175;-70
2022/03/23 07:14:11;;;;;;;;;;;;;;;14.25;28.02;102234.52;1932985;74;20129;-67
2022/03/23 07:16:41;;;;;;;;;;;;;;;14.38;27.70;102240.31;1933004;74;20128;-72
2022/03/23 07:19:08;;;;;;;;;;;;;;;14.14;26.87;102228.69;1933262;74;20237;-71
2022/03/23 07:21:36;;;;;;;;;;;;;;;13.80;27.09;102227.91;1933024;74;20137;-70
2022/03/23 07:24:05;;;;;;;;;;;;;;;13.68;27.06;102229.14;1933057;74;20141;-70
2022/03/23 07:26:32;;;;;;;;;;;;;;;13.77;27.32;102225.80;1932955;74;20175;-67
2022/03/23 07:29:01;;;;;;;;;;;;;;;14.12;26.85;102245.95;1933044;74;20145;-65
2022/03/23 07:31:29;;;;;;;;;;;;;;;14.02;26.57;102214.91;1933158;74;20132;-65
2022/03/23 07:33:57;;;;;;;;;;;;;;;14.02;26.28;102227.29;1927512;74;20177;-68
2022/03/23 07:36:25;;;;;;;;;;;;;;;13.82;25.97;102229.19;1906863;74;20224;-70
2022/03/23 07:38:53;;;;;;;;;;;;;;;13.47;26.09;102221.33;1929526;74;20147;-70
2022/03/23 07:41:21;;;;;;;;;;;;;;;13.42;27.02;102223.22;1900848;74;20143;-66
2022/03/23 07:43:49;;;;;;;;;;;;;;;13.37;26.55;102231.77;1901810;74;20174;-68
2022/03/23 07:46:22;;;;;;;;;;;;;;;13.30;26.51;102215.61;1920479;74;20190;-73
2022/03/23 07:48:46;;;;;;;;;;;;;;;13.54;26.66;102209.23;1911782;73;20258;-74
2022/03/23 07:51:14;;;;;;;;;;;;;;;13.83;25.97;102218.56;1915469;74;20133;-73
2022/03/23 07:53:42;;;;;;;;;;;;;;;13.80;25.55;102205.87;1917003;74;20304;-71
2022/03/23 07:56:10;;;;;;;;;;;;;;;13.78;25.80;102213.85;1920915;74;20140;-70
2022/03/23 07:58:38;;;;;;;;;;;;;;;14.10;25.65;102204.08;1917292;74;20289;-66
2022/03/23 08:01:06;;;;;;;;;;;;;;;14.24;25.23;102199.22;1917967;74;20264;-71
2022/03/23 08:03:34;;;;;;;;;;;;;;;14.46;25.63;102198.55;1916727;74;20127;-69
2022/03/23 08:06:01;;;;;;;;;;;;;;;14.74;25.23;102198.55;1913983;74;20143;-69
2022/03/23 08:08:29;;;;;;;;;;;;;;;14.67;24.71;102192.56;1923071;74;20184;-69
2022/03/23 08:10:57;;;;;;;;;;;;;;;14.63;24.60;102187.44;1931262;74;20132;-75
2022/03/23 08:13:25;;;;;;;;;;;;;;;14.55;24.51;102174.41;1927640;74;20205;-67
2022/03/23 08:15:53;;;;;;;;;;;;;;;14.46;24.46;102180.01;1926122;74;20140;-71
2022/03/23 08:18:21;;;;;;;;;;;;;;;14.55;24.27;102170.86;1927619;74;20140;-67
2022/03/23 08:20:49;;;;;;;;;;;;;;;14.83;24.38;102175.70;1927802;74;20143;-63
2022/03/23 08:23:19;;;;;;;;;;;;;;;15.00;23.83;102177.77;1924829;74;20257;-63
2022/03/23 08:25:46;;;;;;;;;;;;;;;15.17;24.23;102174.52;1928202;74;20140;-63
2022/03/23 08:28:15;;;;;;;;;;;;;;;15.24;23.18;102158.78;1928118;74;20265;-65
2022/03/23 08:30:43;;;;;;;;;;;;;;;15.09;23.01;102161.99;1944391;74;20172;-68
2022/03/23 08:33:11;;;;;;;;;;;;;;;15.06;23.36;102164.28;1945385;74;20132;-66
2022/03/23 08:35:39;;;;;;;;;;;;;;;15.14;23.42;102153.86;1942953;74;20273;-67
2022/03/23 08:38:07;;;;;;;;;;;;;;;15.48;23.19;102136.72;1945387;74;20136;-65
2022/03/23 08:40:35;;;;;;;;;;;;;;;15.52;22.70;102147.16;1942975;74;20308;-64
2022/03/23 08:43:03;;;;;;;;;;;;;;;15.81;22.63;102148.73;1945530;74;20140;-66
2022/03/23 08:45:31;;;;;;;;;;;;;;;15.79;22.15;102139.11;1945383;74;20140;-66
2022/03/23 08:48:00;;;;;;;;;;;;;;;15.83;22.21;102132.75;1945252;74;20132;-67
2022/03/23 08:50:28;;;;;;;;;;;;;;;15.66;21.80;102140.02;1945462;74;20413;-67
2022/03/23 08:52:56;;;;;;;;;;;;;;;15.49;21.92;102134.45;1942945;74;20163;-70
2022/03/23 08:55:25;;;;;;;;;;;;;;;15.17;21.95;102128.08;1945397;74;20136;-69
2022/03/23 08:57:54;;;;;;;;;;;;;;;15.25;22.31;102146.38;1945376;74;20402;-67
2022/03/23 09:00:22;;;;;;;;;;;;;;;15.42;22.29;102138.67;1922396;74;20511;-61
2022/03/23 09:02:50;;;;;;;;;;;;;;;15.66;21.76;102121.42;1911567;75;20173;-66
2022/03/23 09:05:19;;;;;;;;;;;;;;;15.84;21.70;102130.48;1911570;75;20165;-66
2022/03/23 09:07:47;;;;;;;;;;;;;;;15.90;21.26;102131.59;1912071;74;20418;-64
2022/03/23 09:10:15;;;;;;;;;;;;;;;15.44;21.31;102117.39;1899633;76;20143;-64
2022/03/23 09:12:43;;;;;;;;;;;;;;;15.34;21.70;102111.53;1899605;76;20146;-65
2022/03/23 09:15:13;;;;;;;;;;;;;;;15.65;21.94;102105.08;1899648;76;20197;-64
2022/03/23 09:17:41;;;;;;;;;;;;;;;15.80;21.92;102105.83;1901998;74;20421;-64
2022/03/23 09:20:11;;;;;;;;;;;;;;;16.04;21.46;102096.95;1899591;76;20170;-67
2022/03/23 09:22:40;;;;;;;;;;;;;;;16.08;21.02;102083.47;1899645;76;20436;-68
2022/03/23 09:25:10;;;;;;;;;;;;;;;16.11;21.06;102108.59;1899597;76;20451;-65
2022/03/23 09:27:38;;;;;;;;;;;;;;;16.11;20.57;102103.28;1901420;74;20257;-65
2022/03/23 09:30:07;;;;;;;;;;;;;;;16.14;21.34;102090.36;1901588;74;20225;-68
2022/03/23 09:32:35;;;;;;;;;;;;;;;16.48;21.02;102085.81;1922615;74;20152;-67
2022/03/23 09:35:03;;;;;;;;;;;;;;;16.35;20.05;102101.88;1899597;76;20174;-68
2022/03/23 09:37:49;;;;;;;;;;;;;;;15.91;20.13;102098.77;1911117;74;20171;-71
2022/03/23 09:40:18;;;;;;;;;;;;;;;15.73;19.66;102086.19;1925797;74;20225;-72
2022/03/23 09:42:46;;;;;;;;;;;;;;;15.62;20.42;102084.83;1903686;74;20186;-66
2022/03/23 09:45:22;;;;;;;;;;;;;;;15.86;21.01;102078.63;1899695;76;20139;-63
2022/03/23 09:47:44;;;;;;;;;;;;;;;16.10;21.08;102068.80;1913023;74;20171;-62
2022/03/23 09:50:12;;;;;;;;;;;;;;;16.23;21.06;102066.50;1914406;74;20147;-67
2022/03/23 09:52:40;;;;;;;;;;;;;;;16.26;20.73;102079.67;1899693;76;20260;-64
2022/03/23 09:55:09;;;;;;;;;;;;;;;16.09;20.51;102067.95;1899721;76;20139;-64
2022/03/23 09:57:37;;;;;;;;;;;;;;;16.21;20.03;102062.13;1899685;76;20147;-67
2022/03/23 10:00:08;;;;;;;;;;;;;;;16.15;20.54;102045.09;1899752;76;20143;-67
2022/03/23 10:02:42;;;;;;;;;;;;;;;16.16;20.53;102044.18;1899625;75;20175;-67
2022/03/23 10:05:23;;;;;;;;;;;;;;;16.15;19.68;102059.71;1899634;76;20174;-67
2022/03/23 10:07:53;;;;;;;;;;;;;;;15.76;19.49;102057.75;1899665;76;20143;-67
2022/03/23 10:10:22;;;;;;;;;;;;;;;15.57;20.05;102047.44;1916855;75;20176;-63
2022/03/23 10:13:07;;;;;;;;;;;;;;;15.47;20.19;102048.71;1928581;73;20146;-72
2022/03/23 10:15:53;;;;;;;;;;;;;;;15.47;19.95;102052.69;1935971;73;20130;-67
2022/03/23 10:18:23;;;;;;;;;;;;;;;15.17;19.88;102038.34;1923991;75;20150;-68
2022/03/23 10:20:51;;;;;;;;;;;;;;;15.14;19.53;102033.15;1924032;75;20143;-68
2022/03/23 10:23:21;;;;;;;;;;;;;;;14.85;19.89;102034.64;1924090;75;20142;-64
2022/03/23 10:25:50;;;;;;;;;;;;;;;14.88;20.48;102023.04;1924063;73;20145;-69
2022/03/23 10:28:19;;;;;;;;;;;;;;;14.99;20.12;102010.25;1930349;73;20154;-64
2022/03/23 10:30:47;;;;;;;;;;;;;;;15.04;19.75;102018.91;1957352;73;20232;-64
2022/03/23 10:33:19;;;;;;;;;;;;;;;14.69;19.29;102014.05;1949747;73;20142;-67
2022/03/23 10:35:47;;;;;;;;;;;;;;;14.38;19.79;101983.28;1937509;73;20566;-74
2022/03/23 10:38:16;;;;;;;;;;;;;;;14.21;20.15;102007.25;1937376;73;20436;-76
2022/03/23 10:40:45;;;;;;;;;;;;;;;14.21;20.56;102008.58;1940457;73;20585;-75
2022/03/23 10:43:14;;;;;;;;;;;;;;;14.17;20.19;101998.16;1940985;73;20448;-72
2022/03/23 10:45:42;;;;;;;;;;;;;;;14.21;20.14;101986.06;1941401;73;20127;-75
2022/03/23 10:48:11;;;;;;;;;;;;;;;14.16;20.31;101985.34;1943598;73;20140;-73
2022/03/23 10:50:40;;;;;;;;;;;;;;;14.39;20.23;101992.98;1940725;73;20153;-71
2022/03/23 10:53:08;;;;;;;;;;;;;;;14.32;20.32;101982.19;1943041;73;20223;-66
2022/03/23 10:55:37;;;;;;;;;;;;;;;14.25;20.12;101983.70;1925723;73;20232;-58
2022/03/23 10:58:07;;;;;;;;;;;;;;;14.04;19.40;101973.40;1936102;73;20439;-62
2022/03/23 11:00:35;;;;;;;;;;;;;;;13.97;19.91;101965.72;1921486;75;20143;-66
2022/03/23 11:03:04;;;;;;;;;;;;;;;14.06;20.00;101972.03;1936173;73;20436;-64
2022/03/23 11:05:34;;;;;;;;;;;;;;;13.89;20.33;101945.66;1923965;75;20154;-65
2022/03/23 11:08:12;;;;;;;;;;;;;;;13.75;19.84;101953.66;1923977;75;20172;-64
2022/03/23 11:16:14;;;;;;;;;;;;;;;13.75;21.68;101951.00;1907762;74;20147;-61
2022/03/23 11:18:42;;;;;;;;;;;;;;;13.75;21.34;101945.25;1923128;74;20143;-61
2022/03/23 11:21:10;;;;;;;;;;;;;;;13.62;21.79;101935.98;1906932;74;20143;-61
2022/03/23 11:23:38;;;;;;;;;;;;;;;13.60;22.01;101936.50;1904083;74;20147;-61
2022/03/23 11:26:10;;;;;;;;;;;;;;;13.56;21.84;101930.91;1931315;74;20433;-62
2022/03/23 11:28:39;;;;;;;;;;;;;;;13.50;21.66;101939.44;1908152;74;20140;-63
2022/03/23 11:31:09;;;;;;;;;;;;;;;13.33;21.48;101931.16;1927924;74;20763;-62
2022/03/23 11:33:37;;;;;;;;;;;;;;;13.24;22.01;101925.69;1916804;74;20476;-63
2022/03/23 11:36:08;;;;;;;;;;;;;;;13.22;21.69;101926.63;1904791;74;20181;-63
2022/03/23 11:38:37;;;;;;;;;;;;;;;13.05;21.98;101921.87;1899765;76;20143;-64
2022/03/23 11:41:05;;;;;;;;;;;;;;;12.86;22.00;101926.85;1900038;74;20364;-64
2022/03/23 11:43:34;;;;;;;;;;;;;;;12.67;22.10;101919.47;1899686;76;20123;-66
2022/03/23 11:46:02;;;;;;;;;;;;;;;12.52;22.47;101913.28;1910723;74;20144;-72
2022/03/23 11:48:35;;;;;;;;;;;;;;;12.43;22.60;101926.75;1909927;74;20144;-70
2022/03/23 11:51:16;;;;;;;;;;;;;;;12.24;22.32;101896.88;1919728;74;20127;-69
2022/03/23 11:54:02;;;;;;;;;;;;;;;12.16;22.62;101902.84;1899729;76;20173;-73
2022/03/23 11:56:31;;;;;;;;;;;;;;;12.11;22.53;101900.77;1913509;74;20140;-71
2022/03/23 11:59:01;;;;;;;;;;;;;;;12.02;22.39;101898.37;1923842;74;20136;-70
2022/03/23 12:01:32;;;;;;;;;;;;;;;11.94;22.41;101895.48;1916863;74;20133;-70
2022/03/23 12:04:04;;;;;;;;;;;;;;;11.92;22.50;101893.80;1917669;74;20253;-66
2022/03/23 12:06:44;;;;;;;;;;;;;;;11.93;22.66;101896.41;1910059;74;20429;-67
2022/03/23 12:09:08;;;;;;;;;;;;;;;11.88;21.64;101887.70;1915096;74;20237;-68
2022/03/23 12:11:41;;;;;;;;;;;;;;;11.85;21.94;101893.05;1922740;73;20128;-68
2022/03/23 12:14:14;;;;;;;;;;;;;;;11.84;21.41;101880.78;1930321;74;20145;-69
2022/03/23 12:16:55;;;;;;;;;;;;;;;11.72;20.67;101878.45;1912960;74;20124;-69
2022/03/23 12:19:30;;;;;;;;;;;;;;;11.69;20.79;101885.11;1933102;74;20136;-64
2022/03/23 12:22:09;;;;;;;;;;;;;;;11.69;21.14;101878.09;1933061;74;20171;-62
2022/03/23 12:24:41;;;;;;;;;;;;;;;11.74;21.03;101878.81;1902135;74;20245;-62
2022/03/23 12:27:14;;;;;;;;;;;;;;;11.71;20.62;101867.04;1918073;73;20161;-62
2022/03/23 12:29:43;;;;;;;;;;;;;;;11.66;20.73;101878.62;1908679;74;20253;-62
2022/03/23 12:32:13;;;;;;;;;;;;;;;11.67;20.85;101875.05;1906753;73;20222;-68
2022/03/23 12:34:44;;;;;;;;;;;;;;;11.67;20.96;101872.42;1933123;74;20140;-63
2022/03/23 12:37:13;;;;;;;;;;;;;;;11.66;20.89;101857.05;1932965;74;20141;-63
2022/03/23 12:39:45;;;;;;;;;;;;;;;11.66;20.14;101856.19;1933064;74;20141;-67
2022/03/23 12:42:17;;;;;;;;;;;;;;;11.62;19.93;101847.92;1932994;74;20426;-68
2022/03/23 12:44:49;;;;;;;;;;;;;;;11.61;20.21;101858.08;1932909;74;20141;-63
2022/03/23 12:47:19;;;;;;;;;;;;;;;11.57;20.27;101844.95;1933012;74;20179;-61
2022/03/23 12:58:11;;;;;;;;;;;;;;;11.48;20.43;101839.05;1899481;76;20170;-60
2022/03/23 13:00:43;;;;;;;;;;;;;;;11.46;20.29;101837.77;1898975;76;20456;-62
2022/03/23 13:03:13;;;;;;;;;;;;;;;11.47;19.92;101843.47;1899580;76;20173;-62
2022/03/23 13:06:00;;;;;;;;;;;;;;;11.45;20.07;101846.57;1898946;76;20143;-60
2022/03/23 13:08:47;;;;;;;;;;;;;;;11.46;20.04;101841.72;1899462;76;20559;-64
2022/03/23 13:11:06;;;;;;;;;;;;;;;11.44;20.23;101839.58;1903344;74;20142;-61